Time;durP1;ratioP1;P1;durP2;ratioP2;P2;SDS_P1;SDS_P2;PMS_P1;PMS_P2;Temp;Humidity;BMP_temperature;BMP_pressure;BME280_temperature;BME280_humidity;BME280_pressure;Samples;Min_cycle;Max_cycle;Signal;HPM_P1;HPM_P2
2024/03/14 00:00:35;;;;;;;6.32;5.78;;;;;;;;;;5052713;28;20759;-80
2024/03/14 00:03:02;;;;;;;6.35;5.75;;;;;;;;;;5052360;28;20382;-82
2024/03/14 00:05:28;;;;;;;6.47;6.05;;;;;;;;;;5052721;28;20931;-82
2024/03/14 00:08:00;;;;;;;5.20;4.80;;;;;;;;;;5052547;28;20460;-82
2024/03/14 00:10:26;;;;;;;5.13;4.82;;;;;;;;;;5052389;28;20453;-83
2024/03/14 00:12:52;;;;;;;5.60;5.20;;;;;;;;;;5044980;28;20387;-80
2024/03/14 00:15:20;;;;;;;7.13;6.53;;;;;;;;;;5050634;28;20478;-82
2024/03/14 00:17:46;;;;;;;8.48;7.68;;;;;;;;;;5052414;28;20390;-82
2024/03/14 00:20:12;;;;;;;9.98;9.07;;;;;;;;;;5052254;28;20879;-81
2024/03/14 00:22:38;;;;;;;10.25;9.35;;;;;;;;;;5051998;28;20385;-82
2024/03/14 00:25:09;;;;;;;11.38;10.27;;;;;;;;;;5052277;28;20435;-82
2024/03/14 00:27:37;;;;;;;12.05;10.93;;;;;;;;;;5052279;28;20385;-82
2024/03/14 00:30:03;;;;;;;15.07;13.68;;;;;;;;;;5049107;28;20398;-81
2024/03/14 00:32:30;;;;;;;14.27;12.88;;;;;;;;;;5038301;28;20369;-81
2024/03/14 00:34:56;;;;;;;14.85;13.50;;;;;;;;;;5052070;28;20863;-83
2024/03/14 00:37:22;;;;;;;12.38;11.23;;;;;;;;;;5051857;28;20401;-82
2024/03/14 00:39:48;;;;;;;11.83;10.90;;;;;;;;;;5051968;28;20418;-82
2024/03/14 00:42:14;;;;;;;11.57;10.68;;;;;;;;;;5051921;28;20488;-82
2024/03/14 00:44:40;;;;;;;11.10;10.20;;;;;;;;;;5051915;28;20400;-81
2024/03/14 00:47:07;;;;;;;12.70;11.60;;;;;;;;;;5051671;28;20855;-82
2024/03/14 00:49:33;;;;;;;13.07;11.88;;;;;;;;;;5051429;28;20409;-82
2024/03/14 00:51:59;;;;;;;13.57;12.27;;;;;;;;;;5053002;28;20464;-82
2024/03/14 00:54:26;;;;;;;12.95;11.43;;;;;;;;;;5056350;28;20377;-82
2024/03/14 00:56:52;;;;;;;14.48;12.93;;;;;;;;;;5056031;28;20432;-82
2024/03/14 00:59:18;;;;;;;14.10;12.80;;;;;;;;;;5055663;28;20468;-83
2024/03/14 01:01:44;;;;;;;14.65;13.13;;;;;;;;;;5056098;28;20412;-82
2024/03/14 01:04:11;;;;;;;13.43;12.10;;;;;;;;;;5055779;28;20919;-84
2024/03/14 01:06:38;;;;;;;14.07;12.70;;;;;;;;;;5055597;28;20782;-82
2024/03/14 01:09:06;;;;;;;16.15;14.45;;;;;;;;;;5055561;28;20862;-81
2024/03/14 01:11:33;;;;;;;17.90;14.85;;;;;;;;;;5055365;28;20414;-83
2024/03/14 01:13:59;;;;;;;18.33;14.63;;;;;;;;;;5055440;28;20939;-82
2024/03/14 01:16:26;;;;;;;16.98;14.40;;;;;;;;;;5055304;28;20464;-81
2024/03/14 01:18:52;;;;;;;18.70;15.10;;;;;;;;;;5055069;28;20870;-82
2024/03/14 01:21:20;;;;;;;15.77;14.15;;;;;;;;;;5055216;28;20386;-82
2024/03/14 01:23:46;;;;;;;15.75;13.52;;;;;;;;;;5055171;28;20380;-81
2024/03/14 01:26:12;;;;;;;15.38;13.77;;;;;;;;;;5055504;28;20377;-82
2024/03/14 01:28:38;;;;;;;14.18;12.77;;;;;;;;;;5055238;28;20385;-81
2024/03/14 01:31:05;;;;;;;24.15;17.90;;;;;;;;;;5055409;28;20405;-82
2024/03/14 01:33:31;;;;;;;29.42;21.02;;;;;;;;;;5055327;28;20374;-81
2024/03/14 01:36:00;;;;;;;15.00;13.60;;;;;;;;;;5055296;28;20382;-82
2024/03/14 01:38:26;;;;;;;85.47;36.67;;;;;;;;;;5054766;28;20396;-82
2024/03/14 01:40:53;;;;;;;21.70;15.82;;;;;;;;;;5055011;28;20435;-82
2024/03/14 01:43:19;;;;;;;49.50;24.52;;;;;;;;;;5055070;28;20377;-81
2024/03/14 01:45:47;;;;;;;27.17;19.50;;;;;;;;;;5054638;28;20386;-81
2024/03/14 01:48:14;;;;;;;21.52;18.15;;;;;;;;;;5055141;28;20740;-83
2024/03/14 01:50:40;;;;;;;27.63;20.25;;;;;;;;;;5054616;28;20423;-83
2024/03/14 01:53:06;;;;;;;24.20;18.75;;;;;;;;;;5054334;28;20382;-82
2024/03/14 01:55:32;;;;;;;44.08;23.42;;;;;;;;;;5054552;28;20396;-82
2024/03/14 01:57:59;;;;;;;25.02;18.35;;;;;;;;;;5054134;28;20416;-82
2024/03/14 02:00:33;;;;;;;54.92;28.40;;;;;;;;;;5054701;28;21101;-83
2024/03/14 02:03:00;;;;;;;21.83;17.00;;;;;;;;;;5051637;28;20859;-82
2024/03/14 02:05:36;;;;;;;116.88;51.03;;;;;;;;;;5045008;28;20476;-83
2024/03/14 02:08:04;;;;;;;14.30;12.90;;;;;;;;;;5054495;28;20377;-83
2024/03/14 02:10:30;;;;;;;19.10;14.60;;;;;;;;;;5054765;28;20950;-81
2024/03/14 02:12:56;;;;;;;13.23;11.93;;;;;;;;;;5054852;28;20511;-81
2024/03/14 02:15:23;;;;;;;18.33;14.50;;;;;;;;;;5054595;28;20468;-82
2024/03/14 02:17:50;;;;;;;14.82;13.23;;;;;;;;;;5054623;28;20384;-82
2024/03/14 02:20:16;;;;;;;21.55;16.25;;;;;;;;;;5054295;28;20868;-82
2024/03/14 02:22:42;;;;;;;20.87;16.00;;;;;;;;;;5054049;28;20428;-82
2024/03/14 02:25:08;;;;;;;19.70;14.85;;;;;;;;;;5054191;28;20977;-82
2024/03/14 02:27:35;;;;;;;14.90;13.30;;;;;;;;;;5053915;28;20464;-80
2024/03/14 02:30:02;;;;;;;14.00;12.65;;;;;;;;;;5053983;28;20898;-82
2024/03/14 02:32:28;;;;;;;13.48;12.18;;;;;;;;;;5050896;28;20384;-82
2024/03/14 02:34:54;;;;;;;12.60;11.40;;;;;;;;;;5045771;28;20374;-84
2024/03/14 02:37:21;;;;;;;25.98;18.10;;;;;;;;;;5053853;28;20735;-82
2024/03/14 02:39:47;;;;;;;23.63;17.60;;;;;;;;;;5053510;28;20380;-83
2024/03/14 02:42:14;;;;;;;21.73;16.63;;;;;;;;;;5053549;28;20369;-83
2024/03/14 02:44:40;;;;;;;17.95;14.40;;;;;;;;;;5053776;28;21229;-82
2024/03/14 02:47:09;;;;;;;16.50;14.60;;;;;;;;;;5053756;28;20944;-81
2024/03/14 02:49:35;;;;;;;22.50;17.20;;;;;;;;;;5053506;28;20448;-82
2024/03/14 02:52:01;;;;;;;29.57;20.60;;;;;;;;;;5053693;28;20468;-83
2024/03/14 02:54:31;;;;;;;25.00;17.48;;;;;;;;;;5053906;28;20409;-82
2024/03/14 02:56:57;;;;;;;29.02;20.52;;;;;;;;;;5053804;28;20417;-81
2024/03/14 02:59:23;;;;;;;18.25;14.98;;;;;;;;;;5053390;28;20420;-82
2024/03/14 03:01:49;;;;;;;14.27;12.88;;;;;;;;;;5053614;28;20384;-83
2024/03/14 03:04:15;;;;;;;12.93;11.73;;;;;;;;;;5053634;28;20416;-82
2024/03/14 03:06:48;;;;;;;13.50;12.30;;;;;;;;;;5053386;28;20859;-82
2024/03/14 03:09:15;;;;;;;11.43;10.43;;;;;;;;;;5053289;28;20862;-82
2024/03/14 03:11:44;;;;;;;11.13;10.23;;;;;;;;;;5052960;28;20774;-82
2024/03/14 03:14:10;;;;;;;12.07;10.98;;;;;;;;;;5053240;28;20469;-82
2024/03/14 03:16:37;;;;;;;12.32;11.23;;;;;;;;;;5053224;28;20410;-81
2024/03/14 03:19:04;;;;;;;12.65;11.55;;;;;;;;;;5053061;28;20377;-83
2024/03/14 03:21:30;;;;;;;13.90;12.60;;;;;;;;;;5053273;28;20389;-81
2024/03/14 03:23:56;;;;;;;14.50;13.10;;;;;;;;;;5053092;28;20389;-82
2024/03/14 03:26:25;;;;;;;13.10;11.98;;;;;;;;;;5053353;28;20382;-83
2024/03/14 03:28:51;;;;;;;12.20;11.13;;;;;;;;;;5052786;28;20382;-82
2024/03/14 03:31:17;;;;;;;13.20;12.00;;;;;;;;;;5052672;28;20767;-82
2024/03/14 03:33:43;;;;;;;13.13;11.93;;;;;;;;;;5053049;28;20381;-82
2024/03/14 03:36:09;;;;;;;13.07;11.77;;;;;;;;;;5052750;28;20784;-83
2024/03/14 03:38:39;;;;;;;12.68;11.57;;;;;;;;;;5052521;28;20382;-83
2024/03/14 03:41:09;;;;;;;13.60;12.15;;;;;;;;;;5052765;28;20378;-83
2024/03/14 03:43:36;;;;;;;13.63;12.35;;;;;;;;;;5052842;28;20385;-82
2024/03/14 03:46:02;;;;;;;14.27;12.98;;;;;;;;;;5052482;28;20378;-83
2024/03/14 03:48:28;;;;;;;14.63;13.23;;;;;;;;;;5052537;28;20388;-82
2024/03/14 03:50:54;;;;;;;15.55;13.95;;;;;;;;;;5052392;28;20501;-82
2024/03/14 03:53:20;;;;;;;15.68;14.07;;;;;;;;;;5052349;28;20385;-82
2024/03/14 03:55:47;;;;;;;16.35;14.65;;;;;;;;;;5052227;28;20739;-82
2024/03/14 03:58:13;;;;;;;16.15;14.45;;;;;;;;;;5047704;28;20800;-83
2024/03/14 04:00:46;;;;;;;14.85;13.35;;;;;;;;;;5046747;28;20420;-81
2024/03/14 04:03:12;;;;;;;13.70;12.40;;;;;;;;;;5052512;28;20779;-82
2024/03/14 04:05:39;;;;;;;14.00;12.70;;;;;;;;;;5052413;28;20859;-83
2024/03/14 04:08:05;;;;;;;15.07;13.57;;;;;;;;;;5052465;28;20751;-82
2024/03/14 04:10:31;;;;;;;16.60;14.80;;;;;;;;;;5052402;28;20844;-83
2024/03/14 04:13:00;;;;;;;18.77;16.65;;;;;;;;;;5052415;28;20381;-83
2024/03/14 04:15:28;;;;;;;19.13;15.52;;;;;;;;;;5052053;28;20374;-82
2024/03/14 04:17:57;;;;;;;16.27;14.60;;;;;;;;;;5051917;28;20453;-83
2024/03/14 04:20:27;;;;;;;15.43;13.88;;;;;;;;;;5052146;28;20382;-84
2024/03/14 04:22:56;;;;;;;18.35;15.77;;;;;;;;;;5046465;28;20929;-82
2024/03/14 04:25:22;;;;;;;18.25;15.50;;;;;;;;;;5049599;28;20393;-83
2024/03/14 04:27:51;;;;;;;19.33;15.27;;;;;;;;;;5051567;28;20478;-81
2024/03/14 04:30:20;;;;;;;15.63;13.98;;;;;;;;;;5051657;28;20512;-82
2024/03/14 04:32:47;;;;;;;14.55;13.13;;;;;;;;;;5052254;28;20384;-83
2024/03/14 04:35:15;;;;;;;15.15;13.55;;;;;;;;;;5051508;28;20373;-83
2024/03/14 04:37:41;;;;;;;13.77;12.48;;;;;;;;;;5052442;28;20381;-84
2024/03/14 04:40:19;;;;;;;14.25;12.63;;;;;;;;;;5052846;28;20468;-83
2024/03/14 04:42:46;;;;;;;17.17;14.60;;;;;;;;;;5052431;28;20377;-82
2024/03/14 04:45:13;;;;;;;17.10;14.90;;;;;;;;;;5052265;28;20420;-82
2024/03/14 04:47:39;;;;;;;18.55;15.52;;;;;;;;;;5052291;28;20394;-83
2024/03/14 04:50:09;;;;;;;17.50;14.63;;;;;;;;;;5052403;28;20425;-81
2024/03/14 04:52:39;;;;;;;14.57;13.17;;;;;;;;;;5052071;28;20906;-82
2024/03/14 04:55:08;;;;;;;15.38;13.80;;;;;;;;;;5052042;28;20381;-83
2024/03/14 04:57:34;;;;;;;15.55;13.93;;;;;;;;;;5051558;28;20381;-83
2024/03/14 05:00:01;;;;;;;20.15;14.10;;;;;;;;;;5051754;28;20509;-82
2024/03/14 05:02:29;;;;;;;15.23;13.73;;;;;;;;;;5051567;28;20381;-82
2024/03/14 05:04:57;;;;;;;17.70;14.30;;;;;;;;;;5051566;28;20851;-82
2024/03/14 05:07:25;;;;;;;16.90;14.73;;;;;;;;;;5051647;28;20390;-83
2024/03/14 05:09:51;;;;;;;16.80;13.82;;;;;;;;;;5051849;28;20382;-83
2024/03/14 05:12:18;;;;;;;16.43;14.50;;;;;;;;;;5051700;28;20745;-82
2024/03/14 05:14:45;;;;;;;19.50;15.23;;;;;;;;;;5051615;28;20389;-83
2024/03/14 05:17:12;;;;;;;18.30;15.23;;;;;;;;;;5052569;28;20428;-83
2024/03/14 05:19:39;;;;;;;16.13;14.40;;;;;;;;;;5052336;28;20736;-83
2024/03/14 05:22:05;;;;;;;14.57;12.88;;;;;;;;;;5052099;28;20420;-83
2024/03/14 05:24:31;;;;;;;14.57;13.02;;;;;;;;;;5051788;28;20472;-82
2024/03/14 05:26:59;;;;;;;15.65;13.93;;;;;;;;;;5051681;28;20385;-82
2024/03/14 05:29:26;;;;;;;16.85;14.40;;;;;;;;;;5051647;28;20390;-82
2024/03/14 05:31:51;;;;;;;16.17;14.43;;;;;;;;;;5051221;28;20740;-82
2024/03/14 05:34:17;;;;;;;17.00;14.95;;;;;;;;;;5051160;28;20419;-82
2024/03/14 05:36:44;;;;;;;16.35;14.57;;;;;;;;;;5051472;28;20408;-83
2024/03/14 05:39:09;;;;;;;18.63;15.27;;;;;;;;;;5052562;28;20374;-81
2024/03/14 05:41:36;;;;;;;17.58;15.38;;;;;;;;;;5055416;28;20454;-81
2024/03/14 05:44:02;;;;;;;18.88;15.85;;;;;;;;;;5055317;28;20389;-83
2024/03/14 05:46:28;;;;;;;20.85;15.55;;;;;;;;;;5055551;28;20381;-83
2024/03/14 05:48:54;;;;;;;16.20;13.90;;;;;;;;;;5055192;28;20413;-82
2024/03/14 05:51:20;;;;;;;16.55;14.30;;;;;;;;;;5054980;28;20417;-83
2024/03/14 05:53:46;;;;;;;17.00;13.80;;;;;;;;;;5050232;28;20411;-83
2024/03/14 05:56:12;;;;;;;21.38;15.95;;;;;;;;;;5054498;28;20472;-81
2024/03/14 05:58:38;;;;;;;19.20;16.27;;;;;;;;;;5055345;28;20385;-81
2024/03/14 06:01:06;;;;;;;16.20;14.50;;;;;;;;;;5055213;28;20389;-85
2024/03/14 06:03:33;;;;;;;21.17;16.60;;;;;;;;;;5055099;28;20921;-83
2024/03/14 06:05:59;;;;;;;21.88;16.38;;;;;;;;;;5054594;28;20382;-82
2024/03/14 06:08:27;;;;;;;19.17;15.90;;;;;;;;;;5054745;28;20382;-83
2024/03/14 06:10:52;;;;;;;19.88;15.82;;;;;;;;;;5054955;28;20401;-83
2024/03/14 06:13:18;;;;;;;17.13;14.05;;;;;;;;;;5055101;28;20716;-84
2024/03/14 06:15:45;;;;;;;19.23;15.95;;;;;;;;;;5055740;28;20427;-82
2024/03/14 06:18:11;;;;;;;22.98;17.67;;;;;;;;;;5055821;28;20436;-83
2024/03/14 06:20:37;;;;;;;21.50;16.77;;;;;;;;;;5056455;28;20439;-83
2024/03/14 06:23:03;;;;;;;19.75;15.32;;;;;;;;;;5055782;28;20480;-82
2024/03/14 06:25:29;;;;;;;18.70;15.95;;;;;;;;;;5051580;28;20958;-83
2024/03/14 06:27:55;;;;;;;22.00;17.20;;;;;;;;;;5054776;28;20487;-83
2024/03/14 06:30:22;;;;;;;20.83;16.42;;;;;;;;;;5054929;28;20405;-82
2024/03/14 06:32:49;;;;;;;22.40;17.35;;;;;;;;;;5055149;28;20511;-83
2024/03/14 06:35:16;;;;;;;24.05;17.50;;;;;;;;;;5054701;28;20438;-82
2024/03/14 06:37:42;;;;;;;29.67;20.30;;;;;;;;;;5054640;28;20378;-83
2024/03/14 06:40:08;;;;;;;28.07;19.97;;;;;;;;;;5054553;28;20456;-83
2024/03/14 06:42:34;;;;;;;27.67;20.23;;;;;;;;;;5054815;28;20380;-82
2024/03/14 06:45:03;;;;;;;41.80;26.00;;;;;;;;;;5054853;28;20826;-82
2024/03/14 06:47:35;;;;;;;34.28;24.08;;;;;;;;;;5054349;28;20385;-83
2024/03/14 06:50:02;;;;;;;47.95;29.80;;;;;;;;;;5053816;28;20488;-82
2024/03/14 06:52:28;;;;;;;33.22;22.25;;;;;;;;;;5054496;28;20373;-83
2024/03/14 06:54:54;;;;;;;33.00;21.60;;;;;;;;;;5054371;28;20770;-82
2024/03/14 06:57:21;;;;;;;30.00;21.02;;;;;;;;;;5054175;28;20393;-83
2024/03/14 06:59:52;;;;;;;30.83;20.70;;;;;;;;;;5054006;28;20403;-83
2024/03/14 07:02:18;;;;;;;28.38;20.02;;;;;;;;;;5053988;28;20365;-83
2024/03/14 07:04:44;;;;;;;27.63;19.45;;;;;;;;;;5054057;28;21185;-82
2024/03/14 07:07:11;;;;;;;28.08;20.27;;;;;;;;;;5053984;28;20744;-82
2024/03/14 07:09:37;;;;;;;25.52;18.48;;;;;;;;;;5054117;28;20793;-83
2024/03/14 07:12:05;;;;;;;28.08;19.17;;;;;;;;;;5054211;28;20400;-82
2024/03/14 07:14:31;;;;;;;26.25;19.20;;;;;;;;;;5053700;28;20393;-82
2024/03/14 07:16:57;;;;;;;31.73;21.58;;;;;;;;;;5053741;28;20390;-83
2024/03/14 07:19:23;;;;;;;27.40;19.83;;;;;;;;;;5054318;28;20855;-82
2024/03/14 07:21:56;;;;;;;28.30;19.20;;;;;;;;;;5053858;28;20386;-81
2024/03/14 07:24:23;;;;;;;23.90;18.63;;;;;;;;;;5053228;28;20474;-83
2024/03/14 07:26:49;;;;;;;28.65;20.08;;;;;;;;;;5053291;28;20899;-83
2024/03/14 07:29:15;;;;;;;25.95;18.85;;;;;;;;;;5051797;28;20866;-82
2024/03/14 07:31:45;;;;;;;26.33;18.80;;;;;;;;;;5051966;28;20423;-82
2024/03/14 07:34:11;;;;;;;29.05;19.20;;;;;;;;;;5053001;28;20412;-83
2024/03/14 07:36:38;;;;;;;25.75;18.65;;;;;;;;;;5053659;28;20385;-82
2024/03/14 07:39:10;;;;;;;24.85;18.42;;;;;;;;;;5052517;28;20395;-82
2024/03/14 07:41:38;;;;;;;25.67;18.17;;;;;;;;;;5052849;28;20369;-82
2024/03/14 07:44:04;;;;;;;25.75;18.92;;;;;;;;;;5053134;28;20377;-82
2024/03/14 07:46:30;;;;;;;24.20;18.40;;;;;;;;;;5053302;28;20382;-81
2024/03/14 07:48:57;;;;;;;29.20;19.38;;;;;;;;;;5052916;28;20851;-83
2024/03/14 07:51:27;;;;;;;25.65;18.92;;;;;;;;;;5050540;28;20419;-83
2024/03/14 07:53:53;;;;;;;21.77;17.83;;;;;;;;;;5051715;28;20381;-82
2024/03/14 07:56:19;;;;;;;25.98;18.67;;;;;;;;;;5052942;28;20712;-82
2024/03/14 07:58:46;;;;;;;24.10;18.52;;;;;;;;;;5052625;28;20427;-81
2024/03/14 08:01:18;;;;;;;22.63;17.95;;;;;;;;;;5052204;28;20414;-81
2024/03/14 08:03:47;;;;;;;20.42;16.40;;;;;;;;;;5052407;28;20468;-82
2024/03/14 08:06:15;;;;;;;20.20;15.65;;;;;;;;;;5052820;28;20493;-81
2024/03/14 08:08:41;;;;;;;17.58;15.05;;;;;;;;;;5052442;28;20381;-81
2024/03/14 08:11:12;;;;;;;16.67;14.88;;;;;;;;;;5052205;28;20428;-81
2024/03/14 08:13:39;;;;;;;15.60;13.77;;;;;;;;;;5052293;28;20412;-83
2024/03/14 08:16:14;;;;;;;15.32;13.73;;;;;;;;;;5052493;28;20776;-81
2024/03/14 08:18:41;;;;;;;14.63;13.13;;;;;;;;;;5052213;28;20807;-82
2024/03/14 08:21:07;;;;;;;16.02;13.43;;;;;;;;;;5050030;28;20439;-83
2024/03/14 08:23:34;;;;;;;15.68;12.93;;;;;;;;;;5052206;28;20393;-82
2024/03/14 08:26:00;;;;;;;16.13;13.73;;;;;;;;;;5052097;28;20413;-82
2024/03/14 08:28:26;;;;;;;15.85;13.60;;;;;;;;;;5052302;28;20819;-82
2024/03/14 08:30:52;;;;;;;17.73;14.27;;;;;;;;;;5052147;28;20428;-82
2024/03/14 08:33:18;;;;;;;18.05;14.65;;;;;;;;;;5051926;28;20373;-82
2024/03/14 08:35:45;;;;;;;18.38;14.70;;;;;;;;;;5051350;28;20525;-82
2024/03/14 08:38:15;;;;;;;16.40;14.00;;;;;;;;;;5051670;28;20735;-83
2024/03/14 08:40:41;;;;;;;14.48;12.82;;;;;;;;;;5052587;28;20392;-80
2024/03/14 08:43:07;;;;;;;17.08;13.43;;;;;;;;;;5052206;28;20871;-83
2024/03/14 08:45:35;;;;;;;14.93;13.15;;;;;;;;;;5052743;28;20385;-82
2024/03/14 08:48:01;;;;;;;13.40;12.00;;;;;;;;;;5053030;28;20393;-81
2024/03/14 08:50:27;;;;;;;13.05;11.65;;;;;;;;;;5052601;28;20475;-82
2024/03/14 08:52:55;;;;;;;14.65;12.55;;;;;;;;;;5052339;28;20417;-81
2024/03/14 08:55:25;;;;;;;14.23;12.10;;;;;;;;;;5051627;28;20377;-82
2024/03/14 08:57:51;;;;;;;12.68;11.48;;;;;;;;;;5051824;28;20374;-82
2024/03/14 09:00:20;;;;;;;13.07;11.63;;;;;;;;;;5051930;28;20878;-82
2024/03/14 09:02:46;;;;;;;13.80;12.40;;;;;;;;;;5051775;28;20385;-82
2024/03/14 09:05:14;;;;;;;13.25;11.88;;;;;;;;;;5051639;28;20966;-82
2024/03/14 09:07:40;;;;;;;14.73;12.55;;;;;;;;;;5051901;28;20385;-83
2024/03/14 09:10:16;;;;;;;13.07;11.57;;;;;;;;;;5051575;28;20385;-83
2024/03/14 09:12:43;;;;;;;13.60;12.10;;;;;;;;;;5051945;28;20378;-83
2024/03/14 09:15:09;;;;;;;15.00;12.45;;;;;;;;;;5055766;28;20910;-82
2024/03/14 09:17:36;;;;;;;15.50;13.07;;;;;;;;;;5055436;28;20377;-82
2024/03/14 09:20:06;;;;;;;12.93;11.25;;;;;;;;;;5055729;28;20405;-82
2024/03/14 09:22:32;;;;;;;12.90;11.00;;;;;;;;;;5055657;28;20385;-81
2024/03/14 09:25:01;;;;;;;13.98;12.18;;;;;;;;;;5055355;28;20385;-81
2024/03/14 09:27:27;;;;;;;12.90;11.50;;;;;;;;;;5055169;28;20457;-83
2024/03/14 09:29:54;;;;;;;10.93;9.82;;;;;;;;;;5054817;28;20495;-83
2024/03/14 09:32:23;;;;;;;10.07;9.10;;;;;;;;;;5054637;28;20782;-83
2024/03/14 09:34:49;;;;;;;10.52;9.43;;;;;;;;;;5054859;28;20382;-83
2024/03/14 09:37:16;;;;;;;10.45;9.45;;;;;;;;;;5054402;28;20377;-82
2024/03/14 09:39:42;;;;;;;11.18;10.00;;;;;;;;;;5055012;28;20412;-82
2024/03/14 09:42:09;;;;;;;11.23;10.18;;;;;;;;;;5054951;28;20378;-83
2024/03/14 09:44:36;;;;;;;10.52;9.52;;;;;;;;;;5054930;28;20385;-82
2024/03/14 09:47:22;;;;;;;10.35;9.32;;;;;;;;;;5054964;28;20889;-83
2024/03/14 09:49:54;;;;;;;89.78;49.92;;;;;;;;;;5054800;28;20401;-81
2024/03/14 09:52:20;;;;;;;30.10;21.52;;;;;;;;;;5054760;28;20395;-82
2024/03/14 09:54:50;;;;;;;11.25;10.15;;;;;;;;;;5054889;28;20373;-82
2024/03/14 09:57:16;;;;;;;10.55;9.55;;;;;;;;;;5053166;28;20374;-82
2024/03/14 09:59:42;;;;;;;10.65;9.55;;;;;;;;;;5054258;28;20457;-82
2024/03/14 10:02:15;;;;;;;11.60;10.25;;;;;;;;;;5054587;28;20389;-82
2024/03/14 10:04:43;;;;;;;9.98;9.05;;;;;;;;;;5054177;28;20388;-82
2024/03/14 10:07:09;;;;;;;8.57;7.82;;;;;;;;;;5054147;28;20883;-82
2024/03/14 10:09:35;;;;;;;8.55;7.65;;;;;;;;;;5054731;28;20763;-83
2024/03/14 10:12:06;;;;;;;8.40;7.70;;;;;;;;;;5054130;28;20410;-82
2024/03/14 10:14:36;;;;;;;9.05;8.15;;;;;;;;;;5054497;28;20427;-84
2024/03/14 10:17:02;;;;;;;9.15;8.25;;;;;;;;;;5053988;28;20370;-81
2024/03/14 10:19:30;;;;;;;8.25;7.45;;;;;;;;;;5053883;28;20476;-82
2024/03/14 10:21:57;;;;;;;8.35;7.55;;;;;;;;;;5053628;28;20413;-83
2024/03/14 10:24:27;;;;;;;9.38;7.47;;;;;;;;;;5050877;28;20472;-83
2024/03/14 10:26:53;;;;;;;9.27;8.37;;;;;;;;;;5042797;28;20394;-83
2024/03/14 10:29:22;;;;;;;11.48;10.38;;;;;;;;;;5053546;28;20381;-82
2024/03/14 10:31:48;;;;;;;10.30;9.30;;;;;;;;;;5053450;28;20401;-82
2024/03/14 10:34:15;;;;;;;7.93;7.23;;;;;;;;;;5053673;28;20389;-83
2024/03/14 10:36:42;;;;;;;7.15;6.45;;;;;;;;;;5053868;28;20844;-83
2024/03/14 10:39:13;;;;;;;7.30;6.47;;;;;;;;;;5053467;28;20396;-83
2024/03/14 10:41:40;;;;;;;7.78;7.07;;;;;;;;;;5053389;28;20377;-83
2024/03/14 10:44:07;;;;;;;8.15;7.45;;;;;;;;;;5054529;28;20397;-82
2024/03/14 10:46:37;;;;;;;7.93;7.23;;;;;;;;;;5054381;28;20747;-82
2024/03/14 10:49:04;;;;;;;7.07;6.47;;;;;;;;;;5054623;28;20401;-82
2024/03/14 10:51:31;;;;;;;6.50;5.93;;;;;;;;;;5054866;28;20903;-82
2024/03/14 10:53:58;;;;;;;6.50;5.90;;;;;;;;;;5055495;28;20926;-82
2024/03/14 10:56:25;;;;;;;6.40;5.80;;;;;;;;;;5054844;28;20378;-81
2024/03/14 10:58:55;;;;;;;6.43;5.93;;;;;;;;;;5054439;28;20874;-84
2024/03/14 11:01:24;;;;;;;8.13;7.32;;;;;;;;;;5054792;28;20388;-83
2024/03/14 11:03:50;;;;;;;7.03;6.40;;;;;;;;;;5055084;28;20381;-82
2024/03/14 11:06:19;;;;;;;6.18;5.68;;;;;;;;;;5055172;28;20461;-82
2024/03/14 11:08:46;;;;;;;5.07;4.67;;;;;;;;;;5054531;28;20420;-83
2024/03/14 11:11:13;;;;;;;5.38;4.97;;;;;;;;;;5054755;28;20429;-82
2024/03/14 11:13:44;;;;;;;6.10;5.60;;;;;;;;;;5055107;28;20386;-82
2024/03/14 11:16:13;;;;;;;5.85;5.35;;;;;;;;;;5054749;28;20373;-82
2024/03/14 11:18:40;;;;;;;5.90;5.40;;;;;;;;;;5054089;28;20763;-85
2024/03/14 11:21:07;;;;;;;5.47;4.97;;;;;;;;;;5054521;28;20449;-83
2024/03/14 11:23:34;;;;;;;5.38;4.97;;;;;;;;;;5054435;28;20398;-83
2024/03/14 11:26:04;;;;;;;5.57;5.10;;;;;;;;;;5054127;28;20388;-82
2024/03/14 11:28:31;;;;;;;5.90;5.40;;;;;;;;;;5043769;28;20439;-83
2024/03/14 11:31:00;;;;;;;6.05;5.53;;;;;;;;;;5054532;28;20417;-84
2024/03/14 11:33:30;;;;;;;5.93;5.33;;;;;;;;;;5054162;28;20381;-84
2024/03/14 11:35:59;;;;;;;6.25;5.65;;;;;;;;;;5053834;28;20732;-83
2024/03/14 11:38:30;;;;;;;5.30;4.80;;;;;;;;;;5053690;28;20378;-84
2024/03/14 11:40:58;;;;;;;6.95;6.35;;;;;;;;;;5054407;28;20385;-84
2024/03/14 11:43:26;;;;;;;6.47;5.87;;;;;;;;;;5054683;28;20417;-83
2024/03/14 11:46:04;;;;;;;6.13;5.63;;;;;;;;;;5054515;28;20385;-83
2024/03/14 11:48:30;;;;;;;5.30;4.90;;;;;;;;;;5052256;28;20393;-84
2024/03/14 11:50:58;;;;;;;4.78;4.40;;;;;;;;;;5054506;28;20418;-83
2024/03/14 11:53:25;;;;;;;4.85;4.45;;;;;;;;;;5053831;28;20377;-83
2024/03/14 11:55:52;;;;;;;4.82;4.43;;;;;;;;;;5055117;28;20378;-83
2024/03/14 11:58:20;;;;;;;4.70;4.30;;;;;;;;;;5054372;28;20416;-83
2024/03/14 12:00:53;;;;;;;4.85;4.45;;;;;;;;;;5054764;28;20727;-83
2024/03/14 12:03:22;;;;;;;4.88;4.57;;;;;;;;;;5055641;28;20403;-83
2024/03/14 12:05:57;;;;;;;5.30;4.80;;;;;;;;;;5054961;28;20385;-84
2024/03/14 12:08:24;;;;;;;4.30;4.00;;;;;;;;;;5051459;28;20878;-84
2024/03/14 12:10:53;;;;;;;3.85;3.55;;;;;;;;;;5050830;28;20427;-84
2024/03/14 12:13:23;;;;;;;3.92;3.63;;;;;;;;;;5048185;28;20377;-85
2024/03/14 12:15:59;;;;;;;4.03;3.72;;;;;;;;;;5049518;28;20897;-85
2024/03/14 12:18:25;;;;;;;4.77;4.40;;;;;;;;;;5048153;28;20401;-84
2024/03/14 12:20:53;;;;;;;5.63;4.82;;;;;;;;;;5046518;28;20399;-84
2024/03/14 12:23:22;;;;;;;5.53;5.10;;;;;;;;;;5039056;28;20397;-84
2024/03/14 12:25:50;;;;;;;6.35;5.85;;;;;;;;;;5049418;28;20392;-84
2024/03/14 12:28:16;;;;;;;5.32;4.82;;;;;;;;;;5044328;28;20837;-84
2024/03/14 12:30:42;;;;;;;5.07;4.67;;;;;;;;;;5047343;28;20417;-84
2024/03/14 12:33:11;;;;;;;5.85;5.35;;;;;;;;;;5041935;28;20409;-84
2024/03/14 12:35:38;;;;;;;4.30;4.00;;;;;;;;;;5043203;28;20832;-83
2024/03/14 12:38:04;;;;;;;3.90;3.60;;;;;;;;;;5039096;28;20387;-83
2024/03/14 12:40:32;;;;;;;4.15;3.85;;;;;;;;;;5039078;28;21147;-86
2024/03/14 12:42:58;;;;;;;4.35;3.95;;;;;;;;;;5035836;28;21106;-85
2024/03/14 12:45:24;;;;;;;4.10;3.80;;;;;;;;;;5035108;28;20418;-84
2024/03/14 12:47:52;;;;;;;3.80;3.50;;;;;;;;;;5052994;28;20387;-84
2024/03/14 12:50:19;;;;;;;3.50;3.20;;;;;;;;;;5054875;28;20389;-85
2024/03/14 12:52:45;;;;;;;3.47;3.10;;;;;;;;;;5053256;28;20920;-85
2024/03/14 12:55:16;;;;;;;3.40;3.10;;;;;;;;;;5054718;28;20879;-84
2024/03/14 12:57:45;;;;;;;2.88;2.67;;;;;;;;;;5049888;28;20851;-84
2024/03/14 13:00:17;;;;;;;4.00;3.15;;;;;;;;;;5048034;28;20414;-83
2024/03/14 13:02:49;;;;;;;3.10;2.90;;;;;;;;;;5051887;28;20424;-84
2024/03/14 13:05:24;;;;;;;3.50;3.08;;;;;;;;;;5051084;28;20385;-85
2024/03/14 13:08:14;;;;;;;3.00;2.80;;;;;;;;;;5039022;28;20379;-85
2024/03/14 13:10:41;;;;;;;3.00;2.75;;;;;;;;;;5045944;28;20871;-84
2024/03/14 13:13:11;;;;;;;2.70;2.50;;;;;;;;;;5057176;28;20374;-83
2024/03/14 13:15:47;;;;;;;3.13;2.83;;;;;;;;;;5057590;28;20429;-84
2024/03/14 13:18:21;;;;;;;3.10;2.90;;;;;;;;;;5057650;28;20777;-83
2024/03/14 13:21:10;;;;;;;3.03;2.83;;;;;;;;;;5058195;28;20464;-83
2024/03/14 13:23:40;;;;;;;3.33;3.10;;;;;;;;;;5054437;28;20431;-83
2024/03/14 13:26:10;;;;;;;3.80;3.50;;;;;;;;;;5057693;28;20385;-83
2024/03/14 13:28:37;;;;;;;3.47;3.23;;;;;;;;;;5049450;28;20418;-84
2024/03/14 13:31:03;;;;;;;3.75;3.45;;;;;;;;;;5054357;28;20402;-84
2024/03/14 13:33:29;;;;;;;4.00;3.70;;;;;;;;;;5060599;28;20389;-83
2024/03/14 13:35:56;;;;;;;3.55;3.25;;;;;;;;;;5058659;28;20866;-83
2024/03/14 13:38:25;;;;;;;3.42;3.13;;;;;;;;;;5058517;28;20483;-84
2024/03/14 13:40:51;;;;;;;3.30;3.00;;;;;;;;;;5058840;28;20388;-84
2024/03/14 13:43:18;;;;;;;3.35;3.05;;;;;;;;;;5049494;28;20387;-83
2024/03/14 13:45:45;;;;;;;5.60;4.53;;;;;;;;;;5042840;28;20937;-84
2024/03/14 13:48:11;;;;;;;4.50;4.10;;;;;;;;;;5059260;28;20424;-84
2024/03/14 13:50:37;;;;;;;3.33;3.13;;;;;;;;;;5059243;28;20424;-85
2024/03/14 13:53:06;;;;;;;3.30;3.05;;;;;;;;;;5052113;28;20385;-83
2024/03/14 13:55:40;;;;;;;3.28;2.80;;;;;;;;;;5059527;28;20392;-85
2024/03/14 13:58:06;;;;;;;3.25;2.50;;;;;;;;;;5057794;28;20858;-82
2024/03/14 14:01:19;;;;;;;3.60;2.60;;;;;;;;;;5050460;28;20476;-82
2024/03/14 14:03:24;;;;;;;3.00;2.80;;;;;;;;;;5049944;28;20365;-82
2024/03/14 14:05:52;;;;;;;3.15;2.92;;;;;;;;;;5055972;28;20404;-82
2024/03/14 14:08:20;;;;;;;2.80;2.60;;;;;;;;;;5055979;28;20381;-82
2024/03/14 14:10:51;;;;;;;2.78;2.58;;;;;;;;;;5055887;28;20766;-82
2024/03/14 14:13:19;;;;;;;3.78;3.38;;;;;;;;;;5054239;28;20460;-83
2024/03/14 14:15:45;;;;;;;2.60;2.40;;;;;;;;;;5055599;28;20377;-83
2024/03/14 14:18:11;;;;;;;2.63;2.43;;;;;;;;;;5055459;28;20404;-84
2024/03/14 14:20:40;;;;;;;3.97;2.55;;;;;;;;;;5053290;28;20386;-83
2024/03/14 14:23:06;;;;;;;2.90;2.33;;;;;;;;;;5056001;28;20456;-83
2024/03/14 14:25:33;;;;;;;2.50;2.30;;;;;;;;;;5055765;28;20473;-83
2024/03/14 14:27:59;;;;;;;3.10;2.50;;;;;;;;;;5055010;28;20457;-83